createdAt,value
2019-05-14T00:02:12.274Z,97.47
2019-05-14T00:04:42.343Z,100.00
2019-05-14T00:07:11.766Z,100.00
2019-05-14T00:09:41.450Z,100.00
2019-05-14T00:12:11.347Z,100.00
2019-05-14T00:14:43.579Z,100.00
2019-05-14T00:17:11.411Z,100.00
2019-05-14T00:19:41.680Z,100.00
2019-05-14T00:22:11.767Z,100.00
2019-05-14T00:24:41.708Z,100.00
2019-05-14T00:27:11.671Z,100.00
2019-05-14T00:29:41.728Z,100.00
2019-05-14T00:32:11.146Z,100.00
2019-05-14T00:34:42.200Z,100.00
2019-05-14T00:37:11.697Z,100.00
2019-05-14T00:39:41.684Z,100.00
2019-05-14T00:42:12.644Z,100.00
2019-05-14T00:44:53.710Z,100.00
2019-05-14T00:47:11.762Z,100.00
2019-05-14T00:49:42.394Z,100.00
2019-05-14T00:52:11.790Z,100.00
2019-05-14T00:54:41.997Z,100.00
2019-05-14T00:57:11.875Z,100.00
2019-05-14T00:59:41.715Z,100.00
2019-05-14T01:02:11.375Z,100.00
2019-05-14T01:04:42.582Z,100.00
2019-05-14T01:07:11.946Z,100.00
2019-05-14T01:09:42.171Z,100.00
2019-05-14T01:12:12.170Z,100.00
2019-05-14T01:14:42.463Z,100.00
2019-05-14T01:17:11.545Z,100.00
2019-05-14T01:19:42.496Z,100.00
2019-05-14T01:22:12.514Z,100.00
2019-05-14T01:24:41.641Z,100.00
2019-05-14T01:27:12.429Z,100.00
2019-05-14T01:29:42.493Z,100.00
2019-05-14T01:32:11.778Z,100.00
2019-05-14T01:34:41.948Z,100.00
2019-05-14T01:37:11.934Z,100.00
2019-05-14T01:39:41.882Z,100.00
2019-05-14T01:42:12.551Z,100.00
2019-05-14T01:44:41.387Z,100.00
2019-05-14T01:47:12.463Z,100.00
2019-05-14T01:49:42.492Z,100.00
2019-05-14T01:52:11.284Z,100.00
2019-05-14T01:54:42.429Z,100.00
2019-05-14T01:57:11.564Z,100.00
2019-05-14T01:59:42.623Z,100.00
2019-05-14T02:02:11.651Z,100.00
2019-05-14T02:04:42.725Z,100.00
2019-05-14T02:07:11.778Z,100.00
2019-05-14T02:09:42.050Z,100.00
2019-05-14T02:12:11.742Z,100.00
2019-05-14T02:14:42.412Z,100.00
2019-05-14T02:17:12.454Z,100.00
2019-05-14T02:19:42.494Z,100.00
2019-05-14T02:22:11.495Z,100.00
2019-05-14T02:24:41.701Z,100.00
2019-05-14T02:27:12.309Z,100.00
2019-05-14T02:29:41.674Z,100.00
2019-05-14T02:32:11.058Z,100.00
2019-05-14T02:34:40.463Z,100.00
2019-05-14T02:37:09.663Z,100.00
2019-05-14T02:39:41.017Z,100.00
2019-05-14T02:42:09.790Z,100.00
2019-05-14T02:44:40.815Z,100.00
2019-05-14T02:47:09.980Z,100.00
2019-05-14T02:49:39.736Z,100.00
2019-05-14T02:52:10.160Z,100.00
2019-05-14T02:54:40.345Z,100.00
2019-05-14T02:57:10.561Z,100.00
2019-05-14T02:59:39.880Z,100.00
2019-05-14T03:02:10.133Z,100.00
2019-05-14T03:04:39.748Z,100.00
2019-05-14T03:07:10.918Z,100.00
2019-05-14T03:09:40.500Z,100.00
2019-05-14T03:12:10.330Z,100.00
2019-05-14T03:14:39.849Z,100.00
2019-05-14T03:17:10.410Z,100.00
2019-05-14T03:19:40.639Z,100.00
2019-05-14T03:22:10.522Z,100.00
2019-05-14T03:24:39.888Z,100.00
2019-05-14T03:27:09.931Z,100.00
2019-05-14T03:29:40.079Z,100.00
2019-05-14T03:32:12.980Z,100.00
2019-05-14T03:34:43.018Z,100.00
2019-05-14T03:37:13.225Z,100.00
2019-05-14T03:39:40.466Z,100.00
2019-05-14T03:42:09.727Z,100.00
2019-05-14T03:44:39.845Z,100.00
2019-05-14T03:47:10.327Z,100.00
2019-05-14T03:49:39.881Z,100.00
2019-05-14T03:52:09.834Z,100.00
2019-05-14T03:54:40.589Z,100.00
2019-05-14T03:57:09.792Z,100.00
2019-05-14T03:59:40.254Z,100.00
2019-05-14T04:02:10.685Z,100.00
2019-05-14T04:04:39.709Z,100.00
2019-05-14T04:07:09.970Z,100.00
2019-05-14T04:09:40.139Z,100.00
2019-05-14T04:12:11.375Z,100.00
2019-05-14T04:14:42.966Z,100.00
2019-05-14T04:17:15.436Z,100.00
2019-05-14T04:19:44.427Z,100.00
2019-05-14T04:22:14.302Z,100.00
2019-05-14T04:24:44.550Z,100.00
2019-05-14T04:27:14.448Z,100.00
2019-05-14T04:29:42.941Z,100.00
2019-05-14T04:32:12.034Z,100.00
2019-05-14T04:34:40.784Z,100.00
2019-05-14T04:37:10.858Z,100.00
2019-05-14T04:39:39.870Z,100.00
2019-05-14T04:42:09.725Z,100.00
2019-05-14T04:44:45.060Z,100.00
2019-05-14T04:47:32.054Z,100.00
2019-05-14T04:50:11.532Z,100.00
2019-05-14T04:52:54.931Z,100.00
2019-05-14T04:55:23.473Z,100.00
2019-05-14T04:57:51.961Z,100.00
2019-05-14T05:00:20.540Z,100.00
2019-05-14T05:02:49.979Z,100.00
2019-05-14T05:05:19.602Z,100.00
2019-05-14T05:07:49.339Z,100.00
2019-05-14T05:10:19.298Z,100.00
2019-05-14T05:12:49.282Z,100.00
2019-05-14T05:15:19.785Z,100.00
2019-05-14T05:17:52.830Z,100.00
2019-05-14T05:20:19.457Z,100.00
2019-05-14T05:22:48.685Z,100.00
2019-05-14T05:25:18.884Z,100.00
2019-05-14T05:27:48.716Z,100.00
2019-05-14T05:30:19.041Z,100.00
2019-05-14T05:32:49.439Z,100.00
2019-05-14T05:35:18.641Z,100.00
2019-05-14T05:37:49.022Z,100.00
2019-05-14T05:40:19.728Z,100.00
2019-05-14T05:42:49.102Z,100.00
2019-05-14T05:45:18.664Z,100.00
2019-05-14T05:47:57.172Z,100.00
2019-05-14T05:50:19.315Z,100.00
2019-05-14T05:52:49.758Z,100.00
2019-05-14T05:55:19.148Z,100.00
2019-05-14T05:57:49.259Z,100.00
2019-05-14T06:00:33.441Z,100.00
2019-05-14T06:03:02.013Z,100.00
2019-05-14T06:05:30.552Z,100.00
2019-05-14T06:08:00.385Z,100.00
2019-05-14T06:10:29.330Z,100.00
2019-05-14T06:12:58.549Z,99.31
2019-05-14T06:15:44.198Z,99.85
2019-05-14T06:18:11.635Z,94.60
2019-05-14T06:20:28.192Z,97.75
2019-05-14T06:22:58.881Z,98.65
2019-05-14T06:25:31.138Z,99.33
2019-05-14T06:27:59.019Z,97.90
2019-05-14T06:30:34.252Z,98.19
2019-05-14T06:33:02.734Z,97.69
2019-05-14T06:35:31.193Z,97.03
2019-05-14T06:38:00.084Z,99.20
2019-05-14T06:40:28.889Z,99.58
2019-05-14T06:42:59.165Z,98.73
2019-05-14T06:45:29.263Z,96.11
2019-05-14T06:47:59.320Z,93.40
2019-05-14T06:50:30.050Z,93.51
2019-05-14T06:52:58.578Z,93.08
2019-05-14T06:55:28.426Z,92.87
2019-05-14T06:57:58.477Z,94.31
2019-05-14T07:00:28.578Z,93.34
2019-05-14T07:02:58.302Z,94.73
2019-05-14T07:05:28.128Z,93.42
2019-05-14T07:07:59.507Z,90.11
2019-05-14T07:10:28.673Z,89.88
2019-05-14T07:12:59.200Z,86.63
2019-05-14T07:15:29.015Z,86.21
2019-05-14T07:17:58.455Z,84.83
2019-05-14T07:20:28.279Z,84.66
2019-05-14T07:22:58.614Z,83.33
2019-05-14T07:25:28.679Z,83.55
2019-05-14T07:27:58.275Z,83.38
2019-05-14T07:30:28.956Z,82.76
2019-05-14T07:32:58.834Z,84.37
2019-05-14T07:35:28.862Z,84.87
2019-05-14T07:37:59.122Z,82.12
2019-05-14T07:40:29.082Z,80.43
2019-05-14T07:42:58.425Z,83.55
2019-05-14T07:45:28.684Z,82.77
2019-05-14T07:47:58.300Z,79.17
2019-05-14T07:50:29.558Z,79.94
2019-05-14T07:52:58.736Z,77.35
2019-05-14T07:55:28.872Z,75.14
2019-05-14T07:58:01.407Z,76.41
2019-05-14T08:00:30.532Z,78.93
2019-05-14T08:02:59.320Z,78.33
2019-05-14T08:05:28.780Z,78.05
2019-05-14T08:07:58.605Z,76.58
2019-05-14T08:10:28.998Z,76.27
2019-05-14T08:13:00.717Z,75.81
2019-05-14T08:15:29.191Z,76.14
2019-05-14T08:17:59.314Z,75.54
2019-05-14T08:20:28.640Z,75.67
2019-05-14T08:22:58.291Z,71.02
2019-05-14T08:25:28.326Z,66.77
2019-05-14T08:27:58.682Z,67.14
2019-05-14T08:30:28.306Z,65.83
2019-05-14T08:32:58.305Z,63.19
2019-05-14T08:35:28.934Z,60.51
2019-05-14T08:38:07.437Z,61.84
2019-05-14T08:40:28.759Z,60.74
2019-05-14T08:42:58.368Z,58.20
2019-05-14T08:45:28.333Z,58.05
2019-05-14T08:47:58.685Z,60.07
2019-05-14T08:50:28.119Z,59.93
2019-05-14T08:52:58.255Z,59.34
2019-05-14T08:55:26.938Z,59.20
2019-05-14T08:57:55.512Z,60.27
2019-05-14T09:00:24.487Z,58.85
2019-05-14T09:02:52.959Z,58.46
2019-05-14T09:05:21.596Z,58.96
2019-05-14T09:07:50.471Z,60.01
2019-05-14T09:10:19.398Z,60.93
2019-05-14T09:12:49.315Z,60.30
2019-05-14T09:15:18.655Z,59.74
2019-05-14T09:17:53.191Z,60.76
2019-05-14T09:20:21.717Z,60.28
2019-05-14T09:22:50.196Z,60.53
2019-05-14T09:25:19.131Z,60.97
2019-05-14T09:27:49.288Z,62.29
2019-05-14T09:30:18.658Z,63.89
2019-05-14T09:32:49.551Z,62.63
2019-05-14T09:35:18.802Z,60.29
2019-05-14T09:37:50.997Z,57.35
2019-05-14T09:40:19.768Z,59.43
2019-05-14T09:42:50.041Z,58.25
2019-05-14T09:45:19.006Z,57.12
2019-05-14T09:47:50.597Z,55.34
2019-05-14T09:50:22.198Z,56.61
2019-05-14T09:52:49.364Z,55.71
2019-05-14T09:55:18.296Z,54.87
2019-05-14T09:57:48.987Z,53.24
2019-05-14T10:00:18.609Z,52.63
2019-05-14T10:02:49.324Z,52.10
2019-05-14T10:05:19.600Z,52.50
2019-05-14T10:07:49.473Z,51.72
2019-05-14T10:10:19.575Z,54.58
2019-05-14T10:12:54.201Z,54.47
2019-05-14T10:15:18.672Z,55.51
2019-05-14T10:17:49.992Z,55.10
2019-05-14T10:20:35.589Z,55.95
2019-05-14T10:22:48.734Z,55.54
2019-05-14T10:25:18.178Z,56.23
2019-05-14T10:27:48.564Z,53.72
2019-05-14T10:30:18.981Z,53.84
2019-05-14T10:32:49.193Z,54.72
2019-05-14T10:35:19.195Z,54.48
2019-05-14T10:37:48.696Z,54.38
2019-05-14T10:40:18.366Z,53.69
2019-05-14T10:42:49.301Z,53.86
2019-05-14T10:45:18.661Z,52.47
2019-05-14T10:47:49.458Z,53.53
2019-05-14T10:50:18.271Z,53.35
2019-05-14T10:52:48.891Z,52.30
2019-05-14T10:55:18.591Z,50.66
2019-05-14T10:57:51.367Z,51.14
2019-05-14T11:00:19.263Z,52.03
2019-05-14T11:02:49.175Z,51.40
2019-05-14T11:05:18.863Z,50.84
2019-05-14T11:07:48.321Z,44.87
2019-05-14T11:10:19.363Z,47.30
2019-05-14T11:12:50.110Z,49.23
2019-05-14T11:15:19.251Z,50.79
2019-05-14T11:17:48.663Z,51.72
2019-05-14T11:20:19.152Z,50.96
2019-05-14T11:22:49.075Z,50.76
2019-05-14T11:25:19.733Z,50.84
2019-05-14T11:27:49.315Z,49.41
2019-05-14T11:30:19.479Z,47.63
2019-05-14T11:32:49.215Z,44.72
2019-05-14T11:35:19.175Z,46.58
2019-05-14T11:37:48.095Z,47.90
2019-05-14T11:40:18.931Z,48.00
2019-05-14T11:42:49.464Z,49.77
2019-05-14T11:45:18.830Z,50.85
2019-05-14T11:47:48.932Z,49.89
2019-05-14T11:50:19.241Z,51.67
2019-05-14T11:52:48.440Z,51.56
2019-05-14T11:55:18.730Z,50.75
2019-05-14T11:57:48.562Z,47.88
2019-05-14T12:00:19.480Z,47.94
2019-05-14T12:02:48.326Z,47.91
2019-05-14T12:05:18.927Z,48.61
2019-05-14T12:07:48.823Z,48.97
2019-05-14T12:10:18.832Z,48.89
2019-05-14T12:12:48.908Z,47.86
2019-05-14T12:15:18.824Z,48.10
2019-05-14T12:17:51.136Z,47.72
2019-05-14T12:20:18.163Z,47.77
2019-05-14T12:22:48.777Z,45.95
2019-05-14T12:25:18.812Z,44.01
2019-05-14T12:27:49.591Z,40.71
2019-05-14T12:30:19.648Z,41.83
2019-05-14T12:32:50.090Z,43.32
2019-05-14T12:35:19.754Z,43.84
2019-05-14T12:37:49.026Z,44.85
2019-05-14T12:40:19.375Z,43.62
2019-05-14T12:42:49.825Z,43.35
2019-05-14T12:45:20.829Z,42.43
2019-05-14T12:47:50.227Z,39.25
2019-05-14T12:50:22.613Z,41.17
2019-05-14T12:52:51.087Z,40.53
2019-05-14T12:55:19.871Z,34.82
2019-05-14T12:57:48.801Z,33.08
2019-05-14T13:00:17.320Z,31.96
2019-05-14T13:02:45.766Z,29.93
2019-05-14T13:05:14.281Z,28.24
2019-05-14T13:07:42.753Z,33.80
2019-05-14T13:10:11.746Z,34.78
2019-05-14T13:12:40.255Z,33.85
2019-05-14T13:15:09.609Z,31.56
2019-05-14T13:17:38.988Z,29.24
2019-05-14T13:20:13.882Z,30.91
2019-05-14T13:22:45.874Z,30.34
2019-05-14T13:25:11.102Z,29.31
2019-05-14T13:27:39.921Z,27.56
2019-05-14T13:30:10.524Z,31.96
2019-05-14T13:32:39.797Z,29.72
2019-05-14T13:35:13.172Z,29.62
2019-05-14T13:37:39.831Z,32.36
2019-05-14T13:40:09.663Z,28.52
2019-05-14T13:42:40.732Z,30.63
2019-05-14T13:45:10.315Z,31.48
2019-05-14T13:47:39.462Z,32.25
2019-05-14T13:50:09.229Z,34.46
2019-05-14T13:52:40.470Z,36.29
2019-05-14T13:55:09.573Z,36.39
2019-05-14T13:57:39.795Z,29.68
2019-05-14T14:00:11.901Z,26.06
2019-05-14T14:02:40.429Z,25.16
2019-05-14T14:05:09.061Z,25.55
2019-05-14T14:07:44.835Z,23.64
2019-05-14T14:10:12.756Z,29.17
2019-05-14T14:12:41.244Z,33.60
2019-05-14T14:15:10.063Z,34.50
2019-05-14T14:17:39.259Z,35.64
2019-05-14T14:20:08.485Z,36.10
2019-05-14T14:22:40.105Z,32.97
2019-05-14T14:25:09.088Z,31.36
2019-05-14T14:27:40.596Z,26.43
2019-05-14T14:30:09.630Z,24.75
2019-05-14T14:32:40.607Z,24.05
2019-05-14T14:35:10.247Z,31.58
2019-05-14T14:37:40.011Z,29.26
2019-05-14T14:40:10.410Z,27.37
2019-05-14T14:42:40.680Z,24.77
2019-05-14T14:45:09.907Z,24.50
2019-05-14T14:47:39.684Z,23.69
2019-05-14T14:50:09.287Z,23.28
2019-05-14T14:52:37.843Z,23.31
2019-05-14T14:55:07.843Z,30.08
2019-05-14T14:57:43.845Z,32.66
2019-05-14T15:00:10.373Z,32.77
2019-05-14T15:02:41.379Z,33.93
2019-05-14T15:05:14.212Z,33.07
2019-05-14T15:07:41.894Z,34.14
2019-05-14T15:10:10.778Z,35.16
2019-05-14T15:12:40.385Z,34.88
2019-05-14T15:15:10.217Z,34.90
2019-05-14T15:17:39.521Z,35.65
2019-05-14T15:20:10.421Z,35.73
2019-05-14T15:22:38.541Z,36.05
2019-05-14T15:25:09.177Z,35.42
2019-05-14T15:27:38.519Z,35.26
2019-05-14T15:30:10.974Z,35.23
2019-05-14T15:32:39.470Z,34.79
2019-05-14T15:35:10.985Z,32.28
2019-05-14T15:37:42.701Z,34.18
2019-05-14T15:40:10.645Z,35.44
2019-05-14T15:42:39.836Z,36.01
2019-05-14T15:45:11.641Z,35.22
2019-05-14T15:47:40.143Z,34.59
2019-05-14T15:50:10.338Z,34.35
2019-05-14T15:52:39.688Z,29.56
2019-05-14T15:55:10.334Z,28.86
2019-05-14T15:57:39.948Z,30.62
2019-05-14T16:00:12.032Z,30.97
2019-05-14T16:02:40.621Z,34.36
2019-05-14T16:05:10.251Z,36.46
2019-05-14T16:07:39.498Z,37.07
2019-05-14T16:10:08.752Z,34.94
2019-05-14T16:12:39.937Z,37.92
2019-05-14T16:15:08.825Z,32.33
2019-05-14T16:17:47.919Z,34.64
2019-05-14T16:20:09.088Z,36.11
2019-05-14T16:22:39.705Z,36.53
2019-05-14T16:25:09.101Z,37.71
2019-05-14T16:27:39.472Z,38.57
2019-05-14T16:30:09.894Z,38.69
2019-05-14T16:32:39.534Z,36.73
2019-05-14T16:35:08.993Z,38.46
2019-05-14T16:37:39.264Z,37.57
2019-05-14T16:40:08.596Z,38.85
2019-05-14T16:42:39.538Z,39.87
2019-05-14T16:45:09.408Z,40.57
2019-05-14T16:47:39.980Z,40.43
2019-05-14T16:50:09.225Z,39.59
2019-05-14T16:52:41.733Z,39.89
2019-05-14T16:55:22.564Z,40.52
2019-05-14T16:57:39.158Z,39.83
2019-05-14T17:00:10.082Z,39.73
2019-05-14T17:02:38.731Z,40.34
2019-05-14T17:05:09.139Z,39.88
2019-05-14T17:07:38.578Z,40.07
2019-05-14T17:10:08.711Z,39.50
2019-05-14T17:12:49.528Z,40.33
2019-05-14T17:15:09.601Z,41.47
2019-05-14T17:17:38.486Z,40.49
2019-05-14T17:20:08.514Z,40.85
2019-05-14T17:22:39.650Z,41.00
2019-05-14T17:25:09.348Z,40.74
2019-05-14T17:27:39.427Z,42.42
2019-05-14T17:30:09.628Z,41.54
2019-05-14T17:32:39.335Z,42.16
2019-05-14T17:35:08.876Z,42.11
2019-05-14T17:37:39.565Z,42.42
2019-05-14T17:40:09.369Z,43.29
2019-05-14T17:42:39.342Z,43.02
2019-05-14T17:45:08.574Z,43.78
2019-05-14T17:47:38.775Z,43.30
2019-05-14T17:50:08.852Z,43.33
2019-05-14T17:52:42.857Z,44.10
2019-05-14T17:55:12.396Z,44.33
2019-05-14T17:57:48.192Z,44.10
2019-05-14T18:00:14.738Z,44.51
2019-05-14T18:02:43.203Z,44.72
2019-05-14T18:05:11.887Z,44.19
2019-05-14T18:07:40.743Z,44.68
2019-05-14T18:10:21.519Z,44.79
2019-05-14T18:12:55.238Z,44.69
2019-05-14T18:15:23.794Z,45.21
2019-05-14T18:17:52.529Z,46.13
2019-05-14T18:20:21.034Z,45.37
2019-05-14T18:22:49.539Z,45.81
2019-05-14T18:25:18.393Z,45.14
2019-05-14T18:27:49.701Z,46.05
2019-05-14T18:30:18.268Z,45.31
2019-05-14T18:32:49.613Z,44.43
2019-05-14T18:35:18.965Z,45.65
2019-05-14T18:37:48.284Z,45.35
2019-05-14T18:40:18.337Z,45.14
2019-05-14T18:42:48.061Z,45.28
2019-05-14T18:45:19.169Z,44.31
2019-05-14T18:47:53.936Z,44.77
2019-05-14T18:50:22.709Z,44.52
2019-05-14T18:52:51.178Z,45.11
2019-05-14T18:55:19.710Z,44.75
2019-05-14T18:57:48.683Z,44.88
2019-05-14T19:00:18.609Z,46.00
2019-05-14T19:02:48.197Z,43.92
2019-05-14T19:05:18.300Z,44.81
2019-05-14T19:07:48.681Z,45.56
2019-05-14T19:10:18.553Z,45.40
2019-05-14T19:12:49.993Z,45.78
2019-05-14T19:15:19.667Z,44.67
2019-05-14T19:17:48.905Z,44.89
2019-05-14T19:20:19.252Z,46.05
2019-05-14T19:22:49.082Z,46.16
2019-05-14T19:25:18.684Z,46.84
2019-05-14T19:27:48.770Z,47.38
2019-05-14T19:30:19.155Z,45.94
2019-05-14T19:32:48.508Z,46.38
2019-05-14T19:35:19.135Z,46.34
2019-05-14T19:37:48.665Z,46.16
2019-05-14T19:40:18.956Z,47.04
2019-05-14T19:42:48.627Z,47.90
2019-05-14T19:45:17.575Z,47.99
2019-05-14T19:47:46.055Z,47.75
2019-05-14T19:50:14.958Z,48.25
2019-05-14T19:52:43.553Z,48.20
2019-05-14T19:55:12.288Z,49.18
2019-05-14T19:57:41.194Z,48.83
2019-05-14T20:00:10.524Z,48.12
2019-05-14T20:02:38.995Z,48.60
2019-05-14T20:05:09.011Z,49.42
2019-05-14T20:07:38.953Z,50.08
2019-05-14T20:10:08.848Z,49.75
2019-05-14T20:12:39.348Z,49.92
2019-05-14T20:15:09.424Z,49.58
2019-05-14T20:17:38.553Z,49.73
2019-05-14T20:20:09.035Z,50.70
2019-05-14T20:22:39.339Z,50.68
2019-05-14T20:25:08.638Z,50.74
2019-05-14T20:27:39.049Z,51.27
2019-05-14T20:30:09.100Z,50.91
2019-05-14T20:32:37.568Z,50.78
2019-05-14T20:35:08.945Z,51.12
2019-05-14T20:37:38.726Z,50.79
2019-05-14T20:40:08.202Z,51.79
2019-05-14T20:42:39.106Z,50.55
2019-05-14T20:45:07.904Z,50.68
2019-05-14T20:47:38.737Z,50.57
2019-05-14T20:50:08.959Z,51.07
2019-05-14T20:52:37.788Z,51.53
2019-05-14T20:55:09.536Z,51.25
2019-05-14T20:57:38.698Z,51.91
2019-05-14T21:00:11.347Z,52.15
2019-05-14T21:02:39.677Z,53.16
2019-05-14T21:05:13.468Z,52.76
2019-05-14T21:07:39.594Z,53.65
2019-05-14T21:10:09.127Z,54.53
2019-05-14T21:12:39.365Z,53.86
2019-05-14T21:15:08.983Z,54.20
2019-05-14T21:17:38.256Z,55.52
2019-05-14T21:20:10.431Z,56.95
2019-05-14T21:22:39.988Z,57.53
2019-05-14T21:25:12.587Z,58.63
2019-05-14T21:27:47.854Z,60.06
2019-05-14T21:30:10.310Z,59.27
2019-05-14T21:32:42.457Z,59.29
2019-05-14T21:35:09.002Z,60.19
2019-05-14T21:37:39.485Z,60.37
2019-05-14T21:40:09.287Z,61.47
2019-05-14T21:42:38.714Z,62.05
2019-05-14T21:45:09.816Z,61.97
2019-05-14T21:47:38.769Z,62.05
2019-05-14T21:50:09.108Z,62.09
2019-05-14T21:52:39.168Z,62.04
2019-05-14T21:55:08.818Z,61.65
2019-05-14T21:57:38.173Z,61.70
2019-05-14T22:00:19.951Z,61.54
2019-05-14T22:02:49.221Z,60.75
2019-05-14T22:05:18.938Z,60.82
2019-05-14T22:07:48.527Z,61.29
2019-05-14T22:10:19.042Z,61.71
2019-05-14T22:12:48.741Z,61.96
2019-05-14T22:15:18.922Z,62.50
2019-05-14T22:17:49.182Z,62.72
2019-05-14T22:20:19.204Z,62.78
2019-05-14T22:22:48.573Z,61.17
2019-05-14T22:25:19.030Z,62.58
2019-05-14T22:27:48.381Z,62.46
2019-05-14T22:30:18.225Z,63.21
2019-05-14T22:32:47.020Z,63.14
2019-05-14T22:35:15.548Z,64.55
2019-05-14T22:37:44.047Z,64.91
2019-05-14T22:40:12.913Z,65.50
2019-05-14T22:42:41.432Z,66.48
2019-05-14T22:45:10.176Z,65.70
2019-05-14T22:47:40.523Z,66.07
2019-05-14T22:50:09.361Z,66.08
2019-05-14T22:52:38.503Z,65.77
2019-05-14T22:55:08.460Z,67.17
2019-05-14T22:57:39.251Z,66.56
2019-05-14T23:00:09.189Z,66.29
2019-05-14T23:02:38.328Z,67.09
2019-05-14T23:05:08.444Z,67.91
2019-05-14T23:07:38.474Z,68.19
2019-05-14T23:10:08.975Z,68.36
2019-05-14T23:12:38.610Z,68.12
2019-05-14T23:15:07.892Z,68.72
2019-05-14T23:17:38.683Z,69.66
2019-05-14T23:20:09.073Z,69.99
2019-05-14T23:22:39.059Z,70.76
2019-05-14T23:25:09.038Z,70.45
2019-05-14T23:27:39.298Z,71.09
2019-05-14T23:30:08.712Z,70.87
2019-05-14T23:32:38.405Z,71.61
2019-05-14T23:35:07.782Z,71.88
2019-05-14T23:37:36.207Z,72.35
2019-05-14T23:40:08.389Z,72.11
2019-05-14T23:42:39.035Z,71.85
2019-05-14T23:45:08.197Z,72.76
2019-05-14T23:47:38.378Z,73.15
2019-05-14T23:50:08.273Z,73.00
2019-05-14T23:52:38.582Z,72.66
2019-05-14T23:55:08.503Z,71.98
2019-05-14T23:57:37.587Z,71.23
